Time;durP1;ratioP1;P1;durP2;ratioP2;P2;SDS_P1;SDS_P2;PMS_P1;PMS_P2;Temp;Humidity;BMP_temperature;BMP_pressure;BME280_temperature;BME280_humidity;BME280_pressure;Samples;Min_cycle;Max_cycle;Signal;HPM_P1;HPM_P2
2022/11/18 00:01:19;;;;;;;10.23;7.60;;;7.00;99.90;;;;;;5053033;28;20450;-66
2022/11/18 00:03:45;;;;;;;11.43;7.60;;;7.10;99.90;;;;;;5052615;28;20519;-66
2022/11/18 00:06:16;;;;;;;10.52;7.57;;;7.00;99.90;;;;;;5052933;28;20045;-66
2022/11/18 00:08:42;;;;;;;12.02;7.88;;;7.00;99.90;;;;;;5053390;28;20084;-65
2022/11/18 00:11:10;;;;;;;11.60;7.90;;;7.00;99.90;;;;;;5035480;28;20473;-66
2022/11/18 00:16:29;;;;;;;11.80;8.10;;;7.00;99.90;;;;;;5021768;28;20382;-65
2022/11/18 00:18:54;;;;;;;12.20;7.43;;;7.00;99.90;;;;;;5052590;28;20060;-65
2022/11/18 00:21:20;;;;;;;11.95;8.20;;;7.10;99.90;;;;;;5052769;28;20049;-66
2022/11/18 00:23:47;;;;;;;13.50;8.52;;;7.00;99.90;;;;;;5053123;28;20544;-65
2022/11/18 00:26:14;;;;;;;11.48;7.45;;;7.00;99.90;;;;;;5052613;28;20103;-66
2022/11/18 00:28:40;;;;;;;13.45;8.05;;;7.00;99.90;;;;;;5034959;28;20047;-66
2022/11/18 00:31:10;;;;;;;11.80;8.00;;;7.10;99.90;;;;;;5053479;28;20072;-65
2022/11/18 00:33:38;;;;;;;13.55;8.77;;;7.00;99.90;;;;;;5052724;28;20397;-65
2022/11/18 00:36:06;;;;;;;11.88;7.93;;;7.00;99.90;;;;;;5053101;28;20045;-66
2022/11/18 00:38:32;;;;;;;11.23;7.63;;;7.00;99.90;;;;;;5052567;28;20077;-65
2022/11/18 00:41:12;;;;;;;11.43;7.57;;;7.00;99.90;;;;;;5052558;28;20084;-65
2022/11/18 00:43:38;;;;;;;11.68;8.50;;;7.00;99.90;;;;;;5052594;28;20515;-66
2022/11/18 00:46:06;;;;;;;12.30;7.70;;;7.10;99.90;;;;;;5053077;28;20051;-66
2022/11/18 00:48:32;;;;;;;10.98;7.85;;;7.00;99.90;;;;;;5053355;28;20389;-65
2022/11/18 00:51:06;;;;;;;12.10;8.15;;;7.00;99.90;;;;;;5056335;28;20095;-65
2022/11/18 00:53:31;;;;;;;10.45;7.65;;;7.10;99.90;;;;;;5056730;28;20420;-65
2022/11/18 00:55:57;;;;;;;12.00;8.00;;;7.10;99.90;;;;;;5055751;28;20051;-66
2022/11/18 00:58:22;;;;;;;11.77;8.30;;;7.10;99.90;;;;;;5056057;28;20048;-66
2022/11/18 01:00:51;;;;;;;11.25;7.90;;;7.10;99.90;;;;;;5055237;28;20136;-66
2022/11/18 01:03:17;;;;;;;11.40;7.88;;;7.10;99.90;;;;;;5038222;28;20049;-66
2022/11/18 01:05:43;;;;;;;11.15;8.10;;;7.10;99.90;;;;;;5055907;28;20041;-66
2022/11/18 01:08:11;;;;;;;14.13;8.40;;;7.10;99.90;;;;;;5055593;28;20497;-66
2022/11/18 01:10:38;;;;;;;12.63;8.75;;;7.10;99.90;;;;;;5037980;28;20060;-66
2022/11/18 01:13:20;;;;;;;13.07;8.82;;;7.10;99.90;;;;;;5055775;28;20053;-66
2022/11/18 01:15:50;;;;;;;12.25;9.02;;;7.20;99.90;;;;;;5055745;28;20132;-66
2022/11/18 01:18:18;;;;;;;12.80;8.32;;;7.10;99.90;;;;;;5037541;28;20056;-66
2022/11/18 01:20:45;;;;;;;11.48;7.70;;;7.10;99.90;;;;;;5055659;28;20053;-66
2022/11/18 01:23:11;;;;;;;12.70;8.50;;;7.10;99.90;;;;;;5038339;28;20133;-66
2022/11/18 01:25:39;;;;;;;14.23;8.45;;;7.40;99.90;;;;;;5055538;28;20418;-66
2022/11/18 01:28:05;;;;;;;13.38;8.43;;;7.10;99.90;;;;;;5037791;28;20044;-66
2022/11/18 01:30:35;;;;;;;12.32;8.43;;;7.10;99.90;;;;;;5055381;28;20098;-65
2022/11/18 01:33:02;;;;;;;11.25;7.80;;;7.10;99.90;;;;;;5055355;28;20041;-65
2022/11/18 01:35:36;;;;;;;12.77;8.55;;;7.10;99.90;;;;;;5055323;28;20048;-66
2022/11/18 01:38:02;;;;;;;12.73;7.93;;;7.10;99.90;;;;;;5055873;28;20119;-66
2022/11/18 01:40:28;;;;;;;12.63;7.90;;;7.10;99.90;;;;;;5055289;28;20102;-65
2022/11/18 01:42:54;;;;;;;11.98;8.77;;;7.10;99.90;;;;;;5055158;28;20501;-65
2022/11/18 01:45:38;;;;;;;13.40;8.38;;;7.10;99.90;;;;;;5038092;28;20041;-65
2022/11/18 01:48:22;;;;;;;11.40;8.20;;;7.10;99.90;;;;;;5055198;28;20088;-65
2022/11/18 01:50:58;;;;;;;11.68;8.07;;;7.20;99.90;;;;;;5021695;28;20048;-65
2022/11/18 01:53:30;;;;;;;13.75;8.57;;;7.20;99.90;;;;;;5055637;28;20381;-65
2022/11/18 01:55:59;;;;;;;11.73;8.68;;;7.30;99.90;;;;;;5055794;28;20081;-65
2022/11/18 01:58:28;;;;;;;12.07;8.18;;;7.20;99.90;;;;;;5055492;28;20052;-65
2022/11/18 02:00:54;;;;;;;12.05;8.45;;;7.20;99.90;;;;;;5053888;28;20175;-65
2022/11/18 02:03:20;;;;;;;12.43;8.20;;;7.20;99.90;;;;;;5054831;28;20044;-65
2022/11/18 02:05:48;;;;;;;12.77;8.20;;;7.20;99.90;;;;;;5054854;28;20053;-65
2022/11/18 02:08:16;;;;;;;13.10;8.38;;;7.20;99.90;;;;;;5054770;28;20405;-65
2022/11/18 02:10:42;;;;;;;12.35;8.02;;;7.10;99.90;;;;;;5054704;28;20081;-65
2022/11/18 02:13:08;;;;;;;11.63;8.23;;;7.20;99.90;;;;;;5054612;28;20088;-66
2022/11/18 02:16:14;;;;;;;13.68;8.55;;;7.10;99.90;;;;;;5055041;28;20045;-65
2022/11/18 02:18:45;;;;;;;11.10;7.90;;;7.10;99.90;;;;;;5054943;28;20128;-65
2022/11/18 02:21:11;;;;;;;12.43;8.27;;;7.10;99.90;;;;;;5054501;28;20045;-65
2022/11/18 02:23:58;;;;;;;11.95;8.35;;;7.40;99.90;;;;;;5054587;28;20041;-66
2022/11/18 02:26:39;;;;;;;13.40;8.25;;;7.10;99.90;;;;;;5054450;28;20051;-66
2022/11/18 02:29:18;;;;;;;10.85;7.68;;;7.10;99.90;;;;;;5054382;28;20048;-66
2022/11/18 02:32:22;;;;;;;11.88;8.40;;;7.10;99.90;;;;;;5054344;28;20055;-66
2022/11/18 02:35:09;;;;;;;14.70;8.55;;;7.10;99.90;;;;;;5053862;28;20049;-66
2022/11/18 02:38:20;;;;;;;12.18;7.65;;;7.10;99.90;;;;;;5055073;28;20385;-66
2022/11/18 02:40:52;;;;;;;12.20;8.13;;;7.10;99.90;;;;;;5050278;28;20175;-66
2022/11/18 02:43:26;;;;;;;11.43;7.85;;;7.10;99.90;;;;;;5054579;28;20045;-66
2022/11/18 02:45:58;;;;;;;10.82;7.72;;;7.10;99.90;;;;;;5054391;28;20037;-66
2022/11/18 02:48:26;;;;;;;11.70;7.72;;;7.10;99.90;;;;;;5054026;28;20060;-65
2022/11/18 02:50:53;;;;;;;14.27;8.05;;;7.00;99.90;;;;;;5054107;28;20045;-65
2022/11/18 02:53:23;;;;;;;13.95;8.77;;;7.20;99.90;;;;;;5053755;28;20051;-65
2022/11/18 02:55:49;;;;;;;10.95;7.50;;;7.10;99.90;;;;;;5053790;28;20098;-65
2022/11/18 02:58:19;;;;;;;11.18;7.97;;;7.10;99.90;;;;;;5036237;28;20052;-65
2022/11/18 03:00:51;;;;;;;11.82;8.02;;;7.00;99.90;;;;;;5053510;28;20131;-65
2022/11/18 03:03:27;;;;;;;14.93;8.25;;;7.00;99.90;;;;;;5054054;28;20041;-65
2022/11/18 03:06:18;;;;;;;11.20;8.43;;;7.10;99.90;;;;;;5053699;28;20102;-65
2022/11/18 03:08:59;;;;;;;12.63;8.13;;;7.00;99.90;;;;;;5053692;28;20052;-66
2022/11/18 03:11:28;;;;;;;10.27;7.07;;;7.00;99.90;;;;;;5053843;28;20095;-65
2022/11/18 03:14:20;;;;;;;11.88;7.53;;;7.00;99.90;;;;;;5053455;28;20055;-66
2022/11/18 03:16:59;;;;;;;10.95;7.88;;;7.00;99.90;;;;;;5053589;28;20063;-66
2022/11/18 03:19:37;;;;;;;11.95;8.25;;;7.00;99.90;;;;;;5054379;28;20432;-65
2022/11/18 03:22:09;;;;;;;14.25;8.35;;;7.00;99.90;;;;;;5035963;28;20474;-66
2022/11/18 03:24:38;;;;;;;13.80;8.10;;;7.00;99.90;;;;;;5053604;28;20410;-66
2022/11/18 03:27:40;;;;;;;11.02;7.88;;;7.00;99.90;;;;;;5053389;28;20092;-66
2022/11/18 03:30:11;;;;;;;12.95;8.23;;;7.00;99.90;;;;;;5008867;28;20049;-66
2022/11/18 03:32:41;;;;;;;12.05;7.68;;;7.00;99.90;;;;;;5054114;28;20382;-66
2022/11/18 03:35:29;;;;;;;11.38;7.07;;;7.30;99.90;;;;;;5053314;28;20033;-66
2022/11/18 03:38:08;;;;;;;12.02;7.97;;;7.00;99.90;;;;;;5053315;28;20551;-65
2022/11/18 03:40:37;;;;;;;9.77;7.05;;;7.00;99.90;;;;;;5053277;28;20055;-66
2022/11/18 03:43:07;;;;;;;11.80;7.55;;;7.10;99.90;;;;;;5053597;28;20158;-66
2022/11/18 03:45:47;;;;;;;12.40;8.13;;;7.00;99.90;;;;;;5053740;28;20138;-66
2022/11/18 03:48:25;;;;;;;11.98;7.88;;;7.10;99.90;;;;;;5052810;28;20551;-66
2022/11/18 03:51:05;;;;;;;11.48;7.60;;;7.00;99.90;;;;;;5053113;28;20215;-66
2022/11/18 03:53:37;;;;;;;12.23;7.15;;;7.00;99.90;;;;;;5053121;28;20041;-66
2022/11/18 03:56:11;;;;;;;11.43;7.07;;;7.10;99.90;;;;;;5053833;28;20045;-65
2022/11/18 03:59:03;;;;;;;10.75;7.28;;;7.00;99.90;;;;;;5053096;28;20041;-66
2022/11/18 04:01:56;;;;;;;10.10;6.97;;;6.90;99.90;;;;;;5053056;28;20041;-66
2022/11/18 04:04:23;;;;;;;11.48;6.65;;;6.90;99.90;;;;;;5053535;28;20045;-65
2022/11/18 04:06:59;;;;;;;10.30;7.00;;;6.90;99.90;;;;;;5053488;28;20049;-65
2022/11/18 04:09:31;;;;;;;11.65;7.32;;;6.90;99.90;;;;;;5053472;28;20084;-66
2022/11/18 04:12:04;;;;;;;10.68;6.75;;;6.90;99.90;;;;;;5052686;28;20481;-65
2022/11/18 04:14:38;;;;;;;13.30;7.88;;;6.90;99.90;;;;;;5053093;28;20045;-65
2022/11/18 04:17:16;;;;;;;9.95;6.50;;;6.90;99.90;;;;;;5053110;28;20045;-65
2022/11/18 04:19:42;;;;;;;10.35;7.20;;;6.90;99.90;;;;;;5053123;28;20255;-65
2022/11/18 04:22:10;;;;;;;11.15;6.95;;;6.90;99.90;;;;;;5053340;28;20179;-65
2022/11/18 04:24:36;;;;;;;10.95;7.32;;;6.90;99.90;;;;;;5054455;28;20136;-66
2022/11/18 04:27:02;;;;;;;10.75;6.53;;;6.90;99.90;;;;;;5056607;28;20103;-65
2022/11/18 04:29:29;;;;;;;10.57;6.93;;;6.90;99.90;;;;;;5056494;28;20051;-66
2022/11/18 04:31:55;;;;;;;10.88;7.15;;;6.90;99.90;;;;;;5056558;28;20045;-66
2022/11/18 04:34:21;;;;;;;11.77;7.80;;;6.90;99.90;;;;;;5056524;28;20438;-66
2022/11/18 04:36:46;;;;;;;10.52;6.80;;;6.90;99.90;;;;;;5056722;28;20048;-66
2022/11/18 04:39:13;;;;;;;12.25;7.57;;;6.90;99.90;;;;;;5056461;28;20140;-65
2022/11/18 04:41:56;;;;;;;10.05;6.90;;;6.90;99.90;;;;;;5056535;28;20095;-66
2022/11/18 04:44:32;;;;;;;11.15;6.85;;;6.90;99.90;;;;;;5056558;28;20087;-66
2022/11/18 04:47:00;;;;;;;11.55;6.60;;;7.00;99.90;;;;;;5056315;28;20432;-66
2022/11/18 04:49:26;;;;;;;10.93;7.28;;;6.80;99.90;;;;;;5057059;28;20459;-66
2022/11/18 04:51:53;;;;;;;13.50;7.55;;;6.90;99.90;;;;;;5056715;28;20068;-66
2022/11/18 04:54:19;;;;;;;11.80;7.97;;;6.90;99.90;;;;;;5056744;28;20076;-65
2022/11/18 04:56:45;;;;;;;15.23;8.68;;;6.80;99.90;;;;;;5055989;28;20044;-66
2022/11/18 04:59:13;;;;;;;12.30;7.60;;;6.80;99.90;;;;;;5056097;28;20048;-65
2022/11/18 05:01:39;;;;;;;12.75;7.65;;;6.90;99.90;;;;;;5056028;28;20367;-65
2022/11/18 05:04:05;;;;;;;11.48;7.32;;;6.80;99.90;;;;;;5055987;28;20079;-65
2022/11/18 05:06:33;;;;;;;14.15;7.38;;;7.00;99.90;;;;;;5055852;28;20041;-66
2022/11/18 05:08:59;;;;;;;12.68;7.78;;;6.90;99.90;;;;;;5055848;28;20469;-65
2022/11/18 05:14:11;;;;;;;17.00;7.50;;;6.80;99.90;;;;;;5055715;28;20107;-65
2022/11/18 05:16:37;;;;;;;11.88;7.53;;;6.80;99.90;;;;;;5037888;28;20206;-65
2022/11/18 05:19:04;;;;;;;12.07;7.90;;;6.80;99.90;;;;;;5055417;28;20140;-66
2022/11/18 05:21:30;;;;;;;12.13;7.90;;;6.80;99.90;;;;;;5055664;28;20053;-65
2022/11/18 05:23:58;;;;;;;12.82;7.90;;;7.00;99.90;;;;;;5055574;28;20106;-65
2022/11/18 05:26:24;;;;;;;12.60;8.02;;;7.10;99.90;;;;;;5056124;28;20080;-65
2022/11/18 05:28:50;;;;;;;11.75;7.05;;;6.80;99.90;;;;;;5055995;28;20128;-65
2022/11/18 05:31:16;;;;;;;14.73;7.70;;;6.90;99.90;;;;;;5055976;28;20092;-65
2022/11/18 05:33:43;;;;;;;10.88;6.88;;;6.70;99.90;;;;;;5038036;28;20060;-66
2022/11/18 05:36:14;;;;;;;13.32;7.82;;;6.80;99.90;;;;;;5055696;28;20048;-66
2022/11/18 05:38:41;;;;;;;10.98;6.93;;;6.80;99.90;;;;;;5056147;28;20048;-65
2022/11/18 05:41:07;;;;;;;12.27;6.85;;;6.80;99.90;;;;;;5037684;28;20052;-66
2022/11/18 05:43:34;;;;;;;13.02;7.78;;;6.80;99.90;;;;;;5055944;28;20063;-65
2022/11/18 05:46:00;;;;;;;11.13;6.97;;;6.70;99.90;;;;;;5055702;28;20051;-65
2022/11/18 05:48:27;;;;;;;11.93;7.60;;;6.70;99.90;;;;;;5055485;28;20071;-66
2022/11/18 05:50:54;;;;;;;12.77;7.85;;;6.70;99.90;;;;;;5055006;28;20128;-65
2022/11/18 05:53:23;;;;;;;12.73;7.82;;;6.70;99.90;;;;;;5055292;28;20053;-65
2022/11/18 05:56:28;;;;;;;12.90;7.63;;;6.70;99.90;;;;;;5037185;28;20067;-66
2022/11/18 05:58:54;;;;;;;12.00;7.80;;;6.70;99.90;;;;;;4974131;28;20117;-66
2022/11/18 06:01:37;;;;;;;14.70;8.25;;;6.70;99.90;;;;;;5040422;28;20064;-66
2022/11/18 06:04:08;;;;;;;12.55;8.27;;;6.60;99.90;;;;;;5055223;28;20052;-66
2022/11/18 06:06:34;;;;;;;11.32;7.20;;;6.60;99.90;;;;;;5055089;28;20481;-65
2022/11/18 06:09:03;;;;;;;12.95;7.72;;;6.60;99.90;;;;;;5055159;28;20048;-66
2022/11/18 06:11:33;;;;;;;11.63;7.63;;;6.60;99.90;;;;;;5054787;28;20055;-65
2022/11/18 06:14:04;;;;;;;13.13;7.57;;;6.60;99.90;;;;;;5055125;28;20051;-66
2022/11/18 06:16:32;;;;;;;13.98;7.30;;;6.60;99.90;;;;;;5054733;28;20460;-66
2022/11/18 06:18:58;;;;;;;10.88;7.13;;;6.60;99.90;;;;;;5055656;28;20069;-66
2022/11/18 06:21:24;;;;;;;13.50;8.02;;;6.60;99.90;;;;;;5055121;28;20055;-66
2022/11/18 06:23:50;;;;;;;14.05;7.45;;;6.60;99.90;;;;;;5054478;28;20048;-65
2022/11/18 06:26:16;;;;;;;11.73;7.80;;;6.60;99.90;;;;;;5036829;28;20440;-66
2022/11/18 06:28:44;;;;;;;11.45;7.18;;;6.70;99.90;;;;;;5036787;28;20048;-65
2022/11/18 06:31:10;;;;;;;16.30;8.43;;;6.60;99.90;;;;;;5054350;28;20049;-65
2022/11/18 06:33:35;;;;;;;12.93;8.02;;;6.60;99.90;;;;;;5054310;28;20114;-65
2022/11/18 06:36:01;;;;;;;16.33;8.90;;;6.60;99.90;;;;;;5054644;28;20081;-65
2022/11/18 06:38:27;;;;;;;14.18;7.78;;;6.50;99.90;;;;;;5054196;28;20428;-65
2022/11/18 06:40:52;;;;;;;14.20;8.10;;;6.50;99.90;;;;;;5054358;28;20515;-65
2022/11/18 06:48:48;;;;;;;13.90;7.70;;;6.50;99.90;;;;;;5053798;28;20138;-66
2022/11/18 06:51:14;;;;;;;14.60;8.32;;;6.40;99.90;;;;;;5054427;28;20084;-66
2022/11/18 06:53:40;;;;;;;13.48;8.45;;;6.50;99.90;;;;;;5053856;28;20462;-66
2022/11/18 06:56:12;;;;;;;11.98;7.47;;;6.40;99.90;;;;;;5053783;28;20137;-65
2022/11/18 06:58:38;;;;;;;12.80;7.85;;;6.40;99.90;;;;;;5053816;28;20053;-66
2022/11/18 07:01:11;;;;;;;12.02;7.30;;;6.40;99.90;;;;;;5053701;28;20041;-63
2022/11/18 07:03:38;;;;;;;13.65;7.68;;;6.40;99.90;;;;;;5053414;28;20049;-63
2022/11/18 07:06:04;;;;;;;12.32;7.38;;;6.40;99.90;;;;;;5053653;28;20124;-63
2022/11/18 07:08:30;;;;;;;12.02;7.63;;;6.40;99.90;;;;;;5053901;28;20052;-63
2022/11/18 07:10:56;;;;;;;12.88;7.90;;;6.40;99.90;;;;;;5053688;28;20049;-63
2022/11/18 07:13:21;;;;;;;12.07;6.85;;;6.40;99.90;;;;;;5053444;28;20111;-63
2022/11/18 07:15:47;;;;;;;12.25;7.30;;;6.40;99.90;;;;;;5053503;28;20048;-63
2022/11/18 07:18:13;;;;;;;10.20;6.10;;;6.40;99.90;;;;;;5053498;28;20075;-63
2022/11/18 07:20:38;;;;;;;10.68;6.03;;;6.40;99.90;;;;;;5053105;28;20099;-63
2022/11/18 07:23:04;;;;;;;10.20;6.45;;;6.40;99.90;;;;;;5053369;28;20051;-63
2022/11/18 07:25:29;;;;;;;9.98;5.72;;;6.50;99.90;;;;;;5035561;28;20059;-63
2022/11/18 07:27:56;;;;;;;10.60;6.07;;;6.40;99.90;;;;;;5054127;28;20103;-63
2022/11/18 07:30:22;;;;;;;9.63;5.95;;;6.40;99.90;;;;;;5053280;28;20124;-63
2022/11/18 07:32:48;;;;;;;8.90;5.53;;;6.40;99.90;;;;;;5054132;28;20076;-63
2022/11/18 07:35:13;;;;;;;11.02;6.60;;;6.40;99.90;;;;;;5053978;28;20511;-63
2022/11/18 07:37:39;;;;;;;10.75;6.35;;;6.40;99.90;;;;;;5053144;28;20478;-63
2022/11/18 07:40:06;;;;;;;10.63;5.93;;;6.40;99.90;;;;;;5053011;28;20048;-63
2022/11/18 07:42:41;;;;;;;8.88;5.95;;;6.40;99.90;;;;;;5052414;28;20056;-63
2022/11/18 07:45:09;;;;;;;9.40;5.40;;;6.40;99.90;;;;;;5053065;28;20048;-63
2022/11/18 07:47:35;;;;;;;8.50;5.28;;;6.40;99.90;;;;;;5053409;28;20052;-63
2022/11/18 07:50:00;;;;;;;11.43;6.07;;;6.30;99.90;;;;;;5053017;28;20045;-63
2022/11/18 07:52:26;;;;;;;10.15;5.72;;;6.40;99.90;;;;;;5052862;28;20129;-63
2022/11/18 07:54:52;;;;;;;9.88;6.13;;;6.40;99.90;;;;;;5052609;28;20102;-63
2022/11/18 07:57:17;;;;;;;11.93;6.88;;;6.30;99.90;;;;;;5052925;28;20055;-63
2022/11/18 07:59:43;;;;;;;9.52;6.50;;;6.70;99.90;;;;;;5055600;28;20128;-63
2022/11/18 08:02:12;;;;;;;9.63;5.93;;;6.30;99.90;;;;;;5056910;28;20482;-63
2022/11/18 08:04:37;;;;;;;8.85;5.80;;;6.60;99.90;;;;;;5056949;28;20131;-63
2022/11/18 08:07:03;;;;;;;10.07;6.07;;;6.80;99.90;;;;;;5056961;28;20080;-63
2022/11/18 08:09:29;;;;;;;11.45;6.72;;;6.30;99.90;;;;;;5056944;28;20049;-64
2022/11/18 08:11:54;;;;;;;8.90;5.70;;;6.30;99.90;;;;;;5057258;28;20110;-63
2022/11/18 08:14:22;;;;;;;8.98;5.80;;;6.30;99.90;;;;;;5056820;28;20128;-63
2022/11/18 08:16:48;;;;;;;11.00;6.43;;;6.40;99.90;;;;;;5056577;28;20049;-63
2022/11/18 08:19:14;;;;;;;10.18;5.80;;;6.60;99.90;;;;;;5057517;28;20068;-64
2022/11/18 08:21:40;;;;;;;11.77;6.47;;;6.30;99.90;;;;;;5056820;28;20084;-63
2022/11/18 08:24:08;;;;;;;9.00;5.68;;;6.30;99.90;;;;;;5056651;28;20044;-63
2022/11/18 08:26:34;;;;;;;9.68;5.72;;;6.30;99.90;;;;;;5056695;28;20077;-63
2022/11/18 08:28:59;;;;;;;10.00;6.60;;;6.30;99.90;;;;;;5056633;28;20162;-63
2022/11/18 08:31:27;;;;;;;10.60;6.65;;;6.70;99.90;;;;;;5056920;28;20053;-63
2022/11/18 08:33:58;;;;;;;10.82;6.05;;;6.30;99.90;;;;;;5056328;28;20493;-64
2022/11/18 08:36:26;;;;;;;9.07;5.72;;;7.20;99.90;;;;;;5056275;28;20124;-63
2022/11/18 08:38:54;;;;;;;10.13;5.85;;;6.30;99.90;;;;;;5056434;28;20055;-63
2022/11/18 08:41:36;;;;;;;10.75;6.65;;;6.60;99.90;;;;;;5056425;28;20481;-63
2022/11/18 08:44:03;;;;;;;9.77;6.22;;;6.20;99.90;;;;;;5056828;28;20061;-63
2022/11/18 08:46:29;;;;;;;10.48;6.43;;;6.20;99.90;;;;;;5056243;28;20052;-63
2022/11/18 08:48:56;;;;;;;10.57;6.15;;;6.20;99.90;;;;;;5056252;28;20474;-63
2022/11/18 08:51:22;;;;;;;9.85;6.00;;;6.20;99.90;;;;;;5056817;28;20080;-63
2022/11/18 08:53:47;;;;;;;9.88;6.05;;;6.10;99.90;;;;;;5055872;28;20056;-63
2022/11/18 08:56:16;;;;;;;10.52;6.70;;;6.20;99.90;;;;;;5056131;28;20047;-63
2022/11/18 08:58:42;;;;;;;11.38;6.20;;;6.30;99.90;;;;;;5056900;28;20051;-63
2022/11/18 09:01:08;;;;;;;9.88;6.45;;;6.20;99.90;;;;;;5055971;28;20049;-63
2022/11/18 09:03:34;;;;;;;9.52;5.75;;;6.20;99.90;;;;;;5037944;28;20049;-63
2022/11/18 09:06:16;;;;;;;10.88;6.65;;;6.20;99.90;;;;;;5038119;28;20120;-63
2022/11/18 09:08:43;;;;;;;10.88;7.10;;;6.20;99.90;;;;;;5038702;28;20056;-62
2022/11/18 09:11:11;;;;;;;11.50;6.88;;;6.30;99.90;;;;;;5055627;28;20454;-63
2022/11/18 09:13:37;;;;;;;10.95;6.88;;;6.30;99.90;;;;;;5055886;28;20497;-64
2022/11/18 09:16:03;;;;;;;11.82;6.85;;;6.40;99.90;;;;;;5055670;28;20080;-63
2022/11/18 09:18:30;;;;;;;9.82;6.20;;;6.30;99.90;;;;;;5055086;28;20148;-65
2022/11/18 09:21:01;;;;;;;11.60;6.80;;;7.10;99.90;;;;;;5055633;28;20053;-68
2022/11/18 09:23:27;;;;;;;9.30;5.93;;;6.30;99.90;;;;;;5055223;28;20541;-68
2022/11/18 09:26:00;;;;;;;12.13;6.78;;;6.60;99.90;;;;;;5055157;28;20080;-68
2022/11/18 09:28:27;;;;;;;9.52;6.10;;;6.40;99.90;;;;;;5055895;28;20405;-68
2022/11/18 09:30:53;;;;;;;10.35;5.53;;;6.40;99.90;;;;;;5056170;28;20127;-68
2022/11/18 09:33:18;;;;;;;10.43;6.25;;;6.40;99.90;;;;;;5055412;28;20480;-67
2022/11/18 09:35:44;;;;;;;7.97;5.38;;;6.40;99.90;;;;;;5055329;28;20049;-68
2022/11/18 09:38:10;;;;;;;11.48;6.40;;;6.40;99.90;;;;;;5055642;28;20048;-68
2022/11/18 09:40:52;;;;;;;9.85;5.60;;;6.30;99.90;;;;;;5055302;28;20079;-68
2022/11/18 09:43:46;;;;;;;9.15;5.82;;;6.40;99.90;;;;;;5055181;28;20052;-70
2022/11/18 09:46:54;;;;;;;11.45;6.07;;;6.40;99.90;;;;;;5051145;28;20067;-66
2022/11/18 09:49:22;;;;;;;;;;;6.40;99.90;;;;;;5028404;28;20067;-67
2022/11/18 09:51:51;;;;;;;9.90;6.20;;;6.40;99.90;;;;;;5054914;28;19932;-69
2022/11/18 09:54:25;;;;;;;10.05;5.55;;;6.30;99.90;;;;;;5055097;28;20048;-69
2022/11/18 09:56:53;;;;;;;8.15;5.28;;;6.30;99.90;;;;;;5054829;28;20055;-69
2022/11/18 09:59:24;;;;;;;9.55;5.38;;;6.70;99.90;;;;;;5055342;28;20086;-69
2022/11/18 10:01:52;;;;;;;9.10;5.30;;;6.30;99.90;;;;;;5055146;28;20138;-68
2022/11/18 10:04:19;;;;;;;9.13;5.60;;;6.50;99.90;;;;;;5054848;28;20053;-68
2022/11/18 10:06:46;;;;;;;9.35;5.82;;;6.40;99.90;;;;;;5036860;28;20132;-68
2022/11/18 10:09:32;;;;;;;11.80;6.03;;;6.40;99.90;;;;;;5055160;28;20051;-68
2022/11/18 10:12:07;;;;;;;9.67;5.93;;;6.40;99.90;;;;;;5055188;28;20136;-69
2022/11/18 10:14:45;;;;;;;9.57;5.82;;;6.30;99.90;;;;;;5054862;28;20052;-69
2022/11/18 10:17:40;;;;;;;8.65;5.47;;;6.30;99.90;;;;;;5036386;28;20066;-68
2022/11/18 10:20:24;;;;;;;8.18;4.90;;;6.30;99.90;;;;;;5054515;28;20053;-69
2022/11/18 10:23:02;;;;;;;9.88;5.30;;;6.30;99.90;;;;;;5053810;28;20045;-68
2022/11/18 10:25:28;;;;;;;8.88;5.40;;;6.30;99.90;;;;;;5054760;28;20102;-68
2022/11/18 10:27:55;;;;;;;9.85;6.55;;;6.30;99.90;;;;;;5054340;28;20048;-68
2022/11/18 10:30:23;;;;;;;10.25;6.75;;;6.30;99.90;;;;;;5054218;28;20064;-68
2022/11/18 10:33:04;;;;;;;9.38;6.15;;;6.30;99.90;;;;;;5054020;28;20041;-69
2022/11/18 10:35:37;;;;;;;9.18;5.47;;;6.30;99.90;;;;;;5054461;28;20354;-71
2022/11/18 10:38:12;;;;;;;10.30;5.18;;;6.30;99.90;;;;;;5036734;28;20171;-69
2022/11/18 10:40:46;;;;;;;11.52;5.32;;;6.30;99.90;;;;;;5054721;28;20469;-69
2022/11/18 10:43:27;;;;;;;7.68;5.45;;;6.20;99.90;;;;;;5036656;28;20095;-68
2022/11/18 10:45:52;;;;;;;8.15;5.57;;;6.60;99.90;;;;;;5054374;28;20045;-69
2022/11/18 10:48:18;;;;;;;8.50;5.55;;;6.20;99.90;;;;;;5053915;28;20052;-68
2022/11/18 10:50:49;;;;;;;9.95;5.85;;;6.20;99.90;;;;;;5053997;28;20045;-69
2022/11/18 10:53:34;;;;;;;8.63;6.10;;;6.20;99.90;;;;;;5054502;28;20405;-68
2022/11/18 10:56:13;;;;;;;7.70;5.55;;;6.20;99.90;;;;;;5054046;28;20045;-69
2022/11/18 10:58:48;;;;;;;7.95;5.05;;;6.10;99.90;;;;;;5053763;28;20051;-68
2022/11/18 11:01:25;;;;;;;10.50;6.13;;;6.80;99.90;;;;;;5053723;28;20040;-69
2022/11/18 11:04:22;;;;;;;10.05;6.38;;;6.10;99.90;;;;;;5053425;28;20532;-69
2022/11/18 11:06:47;;;;;;;7.57;5.17;;;6.10;99.90;;;;;;5053582;28;20048;-69
2022/11/18 11:09:13;;;;;;;10.80;5.85;;;6.10;99.90;;;;;;5053701;28;20045;-70
2022/11/18 11:11:56;;;;;;;9.85;6.00;;;6.10;99.90;;;;;;5053572;28;20056;-69
2022/11/18 11:14:36;;;;;;;10.05;6.03;;;6.00;99.90;;;;;;5054126;28;20386;-68
2022/11/18 11:17:13;;;;;;;10.32;5.85;;;5.90;99.90;;;;;;5053639;28;20041;-68
2022/11/18 11:20:15;;;;;;;9.25;5.90;;;5.90;99.90;;;;;;5053143;28;20560;-69
2022/11/18 11:22:41;;;;;;;8.18;5.20;;;5.90;99.90;;;;;;5053437;28;20084;-69
2022/11/18 11:25:16;;;;;;;7.82;4.78;;;5.80;99.90;;;;;;5053858;28;20052;-69
2022/11/18 11:27:59;;;;;;;8.98;5.78;;;5.80;99.90;;;;;;5053285;28;20045;-68
2022/11/18 11:30:24;;;;;;;11.07;5.82;;;5.80;99.90;;;;;;5053291;28;20060;-67
2022/11/18 11:33:03;;;;;;;8.30;5.53;;;5.80;99.90;;;;;;5052977;28;20057;-68
2022/11/18 11:35:44;;;;;;;8.45;5.43;;;5.80;99.90;;;;;;5053271;28;20044;-68
2022/11/18 11:38:35;;;;;;;8.65;4.97;;;5.80;99.90;;;;;;5053404;28;20055;-68
2022/11/18 11:41:50;;;;;;;9.43;5.95;;;5.80;99.90;;;;;;5053530;28;20132;-68
2022/11/18 11:44:28;;;;;;;9.93;6.05;;;5.80;99.90;;;;;;5046246;28;20053;-68
2022/11/18 11:49:53;;;;;;;11.43;6.47;;;5.70;99.90;;;;;;5053170;28;20489;-68
2022/11/18 11:52:48;;;;;;;11.30;6.38;;;5.90;99.90;;;;;;5036071;28;20049;-67
2022/11/18 11:55:41;;;;;;;11.77;6.57;;;5.70;99.90;;;;;;5035578;28;20053;-67
2022/11/18 11:58:22;;;;;;;12.00;6.82;;;5.80;99.90;;;;;;5053010;28;20091;-67
2022/11/18 12:01:12;;;;;;;13.38;6.97;;;5.80;99.90;;;;;;5053532;28;20083;-67
2022/11/18 12:03:44;;;;;;;10.40;6.28;;;5.80;99.90;;;;;;5053398;28;20053;-71
2022/11/18 12:06:10;;;;;;;10.15;5.88;;;5.80;99.90;;;;;;5052981;28;20045;-67
2022/11/18 12:08:38;;;;;;;9.98;5.45;;;5.90;99.90;;;;;;5035835;28;20099;-67
2022/11/18 12:11:28;;;;;;;11.02;6.22;;;5.70;99.90;;;;;;5052795;28;20041;-67
2022/11/18 12:14:26;;;;;;;10.07;5.88;;;5.60;99.90;;;;;;5053457;28;20049;-68
2022/11/18 12:16:56;;;;;;;10.25;5.97;;;5.60;99.90;;;;;;5052640;28;20049;-68
2022/11/18 12:19:22;;;;;;;10.18;5.78;;;5.60;99.90;;;;;;5053437;28;20056;-67
2022/11/18 12:21:48;;;;;;;11.50;6.28;;;6.50;99.90;;;;;;5052836;28;20115;-68
2022/11/18 12:24:32;;;;;;;10.82;6.47;;;5.50;99.90;;;;;;5052781;28;20505;-68
2022/11/18 12:26:59;;;;;;;15.38;7.10;;;5.50;99.90;;;;;;5035220;28;20088;-69
2022/11/18 12:29:33;;;;;;;10.93;6.55;;;6.40;99.90;;;;;;5052762;28;20052;-68
2022/11/18 12:32:03;;;;;;;11.50;6.70;;;5.40;99.90;;;;;;5053235;28;20041;-68
2022/11/18 12:34:39;;;;;;;13.00;6.82;;;5.30;99.90;;;;;;5052642;28;20081;-68
2022/11/18 12:37:22;;;;;;;11.68;7.13;;;5.30;99.90;;;;;;5052655;28;20085;-68
2022/11/18 12:39:58;;;;;;;12.77;7.68;;;5.50;99.90;;;;;;5052392;28;20044;-68
2022/11/18 12:45:44;;;;;;;13.15;7.30;;;5.40;99.90;;;;;;5054291;28;20099;-69
2022/11/18 12:48:22;;;;;;;11.15;6.20;;;5.20;99.90;;;;;;5056534;28;20049;-69
2022/11/18 12:51:13;;;;;;;11.90;7.18;;;5.20;99.90;;;;;;5056047;28;20053;-69
2022/11/18 12:53:43;;;;;;;12.10;7.03;;;5.20;99.90;;;;;;5020007;28;20115;-69
2022/11/18 12:56:25;;;;;;;11.27;6.38;;;5.20;99.90;;;;;;5056425;28;20040;-68
2022/11/18 12:58:54;;;;;;;11.73;6.57;;;5.20;99.90;;;;;;5056238;28;20067;-68
2022/11/18 13:01:23;;;;;;;12.23;7.15;;;5.10;99.90;;;;;;5038952;28;20056;-67
2022/11/18 13:03:48;;;;;;;13.85;7.10;;;5.10;99.90;;;;;;5055997;28;20084;-67
2022/11/18 13:06:43;;;;;;;11.02;6.65;;;5.50;99.90;;;;;;5055948;28;20142;-68
2022/11/18 13:09:21;;;;;;;11.05;5.88;;;5.10;99.90;;;;;;5052108;28;20057;-67
2022/11/18 13:11:53;;;;;;;11.75;6.25;;;5.10;99.90;;;;;;5055837;28;20048;-68
2022/11/18 13:20:37;;;;;;;12.93;6.97;;;6.10;99.90;;;;;;5056021;28;20053;-67
2022/11/18 13:26:24;;;;;;;11.68;6.70;;;5.00;99.90;;;;;;5055509;28;20044;-66
2022/11/18 13:29:21;;;;;;;11.73;6.45;;;5.00;99.90;;;;;;5056343;28;20100;-67
2022/11/18 13:32:16;;;;;;;12.80;6.33;;;5.10;99.90;;;;;;5055905;28;20060;-68
2022/11/18 13:34:51;;;;;;;9.27;5.75;;;5.10;99.90;;;;;;5055693;28;20064;-68
2022/11/18 13:37:22;;;;;;;9.30;5.05;;;5.40;99.90;;;;;;5055478;28;20041;-68
2022/11/18 13:39:48;;;;;;;10.50;5.45;;;5.00;99.90;;;;;;5055723;28;20056;-67
2022/11/18 13:42:22;;;;;;;9.40;5.55;;;5.60;99.90;;;;;;5055280;28;20049;-67